Vango — ZCOX3 — position and weather

sailwx.info

Track history (hours):
 
Tides and Currents Weather Stations Pressure Air Temp Water Temp Dewpoint Dewpoint Depression Visibility Wind Speed Wind Dir Waves Ship Positions

Vango

Last reported at 2017-Aug-16 14:33 UTC. Time now 2017-Aug-16 21:42 UTC.
Position N 38°46' E 001°26'.

Length 49 m; draft 2.4 m.

Type: Pleasure craft. MMSI: 319193000.

Date/timePositionNaut miles runAvg speedWind from/ knotsBaromVisibWave heightAir tempDewpointWater temp
2017-Aug-16 14:33N 38°46' E 001°26'1 0.2
2017-Aug-16 10:25N 38°45' E 001°26'512.4
2017-Aug-16 10:00N 38°51' E 001°26'4 4.1
2017-Aug-16 09:00N 38°55' E 001°26'0 0.0
2017-Aug-16 08:30N 38°55' E 001°26'0 0.0
2017-Aug-16 08:00N 38°55' E 001°26'0 0.0
2017-Aug-16 07:30N 38°55' E 001°26'0 0.0
2017-Aug-16 07:00N 38°55' E 001°26'0 0.0
2017-Aug-16 06:30N 38°55' E 001°26'0 0.0
2017-Aug-16 06:00N 38°55' E 001°26'0 0.0
2017-Aug-16 05:30N 38°55' E 001°26'0 0.0
2017-Aug-16 05:00N 38°55' E 001°26'0 0.0
2017-Aug-16 04:30N 38°55' E 001°26'0 0.0
2017-Aug-16 04:00N 38°55' E 001°26'0 0.0
2017-Aug-16 03:30N 38°55' E 001°26'0 0.0
2017-Aug-16 03:00N 38°55' E 001°26'0 0.0
2017-Aug-16 02:30N 38°55' E 001°26'0 0.0
2017-Aug-16 02:00N 38°55' E 001°26'0 0.0
2017-Aug-16 01:30N 38°55' E 001°26'0 0.0
2017-Aug-16 01:00N 38°55' E 001°26'0 0.0
2017-Aug-16 00:30N 38°55' E 001°26'0 0.0
2017-Aug-16 00:00N 38°55' E 001°26'0 0.0
2017-Aug-15 23:30N 38°55' E 001°26'0 0.0
2017-Aug-15 23:00N 38°55' E 001°26'0 0.0
2017-Aug-15 22:30N 38°55' E 001°26'0 0.0
2017-Aug-15 22:00N 38°55' E 001°26'0 0.0
2017-Aug-15 21:30N 38°55' E 001°26'0 0.0
2017-Aug-15 21:00N 38°55' E 001°26'0 0.0
2017-Aug-15 20:30N 38°55' E 001°26'0 0.0
2017-Aug-15 20:00N 38°55' E 001°26'0 0.0
2017-Aug-15 19:30N 38°55' E 001°26'0 0.0
2017-Aug-15 19:00N 38°55' E 001°26'0 0.0
2017-Aug-15 18:30N 38°55' E 001°26'0 0.0
2017-Aug-15 18:00N 38°55' E 001°26'0 0.0
2017-Aug-15 17:30N 38°55' E 001°26'0 0.0
2017-Aug-15 17:00N 38°55' E 001°26'0 0.0
2017-Aug-15 16:30N 38°55' E 001°26'0 0.0
2017-Aug-15 16:00N 38°55' E 001°26'0 0.0
2017-Aug-15 15:30N 38°55' E 001°26'0 0.0
2017-Aug-15 15:00N 38°55' E 001°26'0 0.0
2017-Aug-15 14:24N 38°55' E 001°26'0 0.0
2017-Aug-15 14:00N 38°55' E 001°26'0 0.0
2017-Aug-15 13:30N 38°55' E 001°26'0 0.0
2017-Aug-15 12:57N 38°55' E 001°26'0 0.0
2017-Aug-15 12:27N 38°55' E 001°26'0 0.0
2017-Aug-15 12:00N 38°55' E 001°26'0 0.0
2017-Aug-15 11:30N 38°55' E 001°26'0 0.0
2017-Aug-15 11:00N 38°55' E 001°26'0 0.0
2017-Aug-15 10:30N 38°55' E 001°26'0 0.0
2017-Aug-15 10:00N 38°55' E 001°26'0 0.0
2017-Aug-15 09:30N 38°55' E 001°26'0 0.0
2017-Aug-15 09:00N 38°55' E 001°26'0 0.0
2017-Aug-15 08:30N 38°55' E 001°26'0 0.0
2017-Aug-15 08:00N 38°55' E 001°26'0 0.0
2017-Aug-15 07:24N 38°55' E 001°26'0 0.0
2017-Aug-15 07:00N 38°55' E 001°26'0 0.0
2017-Aug-15 06:30N 38°55' E 001°26'0 0.0
2017-Aug-14 17:30N 38°55' E 001°26'3 3.2
2017-Aug-14 16:30N 38°55' E 001°30'918.2
2017-Aug-14 16:00N 39°02' E 001°38'0 0.0
2017-Aug-14 12:02N 39°02' E 001°38'0 0.0
2017-Aug-14 07:50N 39°02' E 001°38'0 0.0
2017-Aug-14 07:20N 39°02' E 001°38'0 0.1
2017-Aug-14 06:47N 39°02' E 001°38'0 0.1
2017-Aug-14 06:30N 39°02' E 001°38'612.0
2017-Aug-14 06:00N 38°57' E 001°33'613.1
2017-Aug-14 05:30N 38°54' E 001°26'1 1.1
2017-Aug-14 05:00N 38°54' E 001°26'0 0.0
2017-Aug-14 04:30N 38°54' E 001°26'0 0.0
2017-Aug-14 04:00N 38°54' E 001°26'0 0.0
2017-Aug-14 03:27N 38°54' E 001°26'0 0.0
2017-Aug-14 03:00N 38°54' E 001°26'0 0.0
2017-Aug-14 02:30N 38°54' E 001°26'0 0.0
2017-Aug-14 02:00N 38°54' E 001°26'0 0.0
2017-Aug-14 01:30N 38°54' E 001°26'0 0.1
2017-Aug-14 01:00N 38°54' E 001°26'0 0.0
2017-Aug-14 00:30N 38°54' E 001°26'0 0.1
2017-Aug-14 00:00N 38°54' E 001°26'0 0.0
2017-Aug-13 23:30N 38°54' E 001°26'0 0.0
2017-Aug-13 23:00N 38°54' E 001°26'1 1.1
2017-Aug-13 22:28N 38°54' E 001°25'1 1.2
2017-Aug-13 22:00N 38°54' E 001°26'0 0.0
2017-Aug-13 21:30N 38°54' E 001°26'0 0.0
2017-Aug-13 20:57N 38°54' E 001°26'0 0.0
2017-Aug-13 20:30N 38°54' E 001°26'0 0.0
2017-Aug-13 19:51N 38°54' E 001°26'1 0.1
2017-Aug-13 14:30N 38°54' E 001°25'0 0.4
2017-Aug-13 13:59N 38°54' E 001°25'6 0.5
2017-Aug-13 01:20N 38°52' E 001°18'0 0.0
2017-Aug-12 18:56N 38°52' E 001°18'10 0.9
2017-Aug-12 08:03N 39°02' E 001°17'513.1
2017-Aug-12 07:39N 39°05' E 001°23'413.1
2017-Aug-12 07:22N 39°06' E 001°27'3 7.6
2017-Aug-12 07:00N 39°07' E 001°31'611.8
2017-Aug-12 06:30N 39°04' E 001°37'3 0.1
2017-Aug-11 07:31N 39°01' E 001°37'0 6.8
2017-Aug-11 07:30N 39°01' E 001°37'5 9.6
2017-Aug-11 07:00N 38°57' E 001°33'712.5
2017-Aug-11 06:28N 38°54' E 001°26'0 0.0
2017-Aug-11 05:59N 38°54' E 001°26'0 0.0
2017-Aug-11 05:29N 38°54' E 001°26'0 0.0
2017-Aug-11 04:59N 38°54' E 001°26'0 0.0
2017-Aug-11 04:28N 38°54' E 001°26'0 0.0
2017-Aug-11 03:58N 38°54' E 001°26'0 0.0
2017-Aug-11 03:29N 38°54' E 001°26'0 0.0
2017-Aug-11 02:59N 38°54' E 001°26'0 0.0
2017-Aug-11 02:29N 38°54' E 001°26'0 0.0
2017-Aug-11 01:59N 38°54' E 001°26'0 0.0
2017-Aug-11 01:29N 38°54' E 001°26'0 0.0
2017-Aug-11 00:59N 38°54' E 001°26'0 0.0
2017-Aug-11 00:28N 38°54' E 001°26'1 2.0
2017-Aug-10 23:59N 38°55' E 001°26'1 1.9
2017-Aug-10 23:29N 38°54' E 001°26'0 0.0
2017-Aug-10 22:59N 38°54' E 001°26'0 0.0
2017-Aug-10 22:28N 38°54' E 001°26'0 0.0
2017-Aug-10 21:59N 38°54' E 001°26'0 0.0
2017-Aug-10 21:25N 38°54' E 001°26'0 0.0
2017-Aug-10 20:59N 38°54' E 001°26'0 0.0
2017-Aug-10 19:59N 38°54' E 001°26'1 1.3
2017-Aug-10 19:29N 38°54' E 001°27'1 1.3
2017-Aug-10 18:59N 38°54' E 001°26'0 0.0
2017-Aug-10 18:28N 38°54' E 001°26'0 0.0
2017-Aug-10 18:00N 38°54' E 001°26'8 1.3
2017-Aug-10 12:07N 38°46' E 001°24'514.1
2017-Aug-10 11:45N 38°50' E 001°20'3 0.2
2017-Aug-09 16:17N 38°52' E 001°17'310.6
2017-Aug-09 16:00N 38°50' E 001°20'4 0.7
2017-Aug-09 09:55N 38°48' E 001°24'613.7
2017-Aug-09 09:30N 38°50' E 001°31'814.2
2017-Aug-09 08:59N 38°52' E 001°40'714.2
2017-Aug-09 08:30N 38°54' E 001°48'714.0
2017-Aug-09 08:00N 38°57' E 001°57'713.8
2017-Aug-09 07:30N 38°59' E 002°05'713.9
2017-Aug-09 07:01N 39°01' E 002°14'712.9
2017-Aug-09 06:30N 39°04' E 002°22'613.0
2017-Aug-09 06:00N 39°06' E 002°30'713.1
2017-Aug-09 05:30N 39°08' E 002°38'713.3
2017-Aug-09 05:00N 39°10' E 002°46'713.7
2017-Aug-09 04:30N 39°12' E 002°54'713.6
2017-Aug-09 04:00N 39°14' E 003°03'713.5
2017-Aug-09 03:30N 39°16' E 003°11'713.7
2017-Aug-09 03:00N 39°20' E 003°18'143 6.2
2017-Aug-08 03:53N 41°12' E 005°15'3112.3
2017-Aug-08 01:22N 41°39' E 005°35'512.1
2017-Aug-08 00:57N 41°44' E 005°38'612.3
2017-Aug-08 00:28N 41°49' E 005°41'612.7
2017-Aug-07 23:58N 41°55' E 005°45'3212.9
2017-Aug-07 21:27N 42°23' E 006°07'613.4
2017-Aug-07 21:00N 42°28' E 006°10'713.6
2017-Aug-07 20:30N 42°34' E 006°14'1513.9
2017-Aug-07 19:27N 42°47' E 006°23'  
Track history (hours):
 
Tides and Currents Weather Stations Pressure Air Temp Water Temp Dewpoint Dewpoint Depression Visibility Wind Speed Wind Dir Waves Ship Positions

Vango

Last reported at 2017-Aug-16 14:33 UTC. Time now 2017-Aug-16 21:42 UTC.
Position N 38°46' E 001°26'.

Length 49 m; draft 2.4 m.

Type: Pleasure craft. MMSI: 319193000.

Date/timePositionNaut miles runAvg speedWind from/ knotsBaromVisibWave heightAir tempDewpointWater temp
2017-Aug-16 14:33N 38°46' E 001°26'1 0.2
2017-Aug-16 10:25N 38°45' E 001°26'512.4
2017-Aug-16 10:00N 38°51' E 001°26'4 4.1
2017-Aug-16 09:00N 38°55' E 001°26'0 0.0
2017-Aug-16 08:30N 38°55' E 001°26'0 0.0
2017-Aug-16 08:00N 38°55' E 001°26'0 0.0
2017-Aug-16 07:30N 38°55' E 001°26'0 0.0
2017-Aug-16 07:00N 38°55' E 001°26'0 0.0
2017-Aug-16 06:30N 38°55' E 001°26'0 0.0
2017-Aug-16 06:00N 38°55' E 001°26'0 0.0
2017-Aug-16 05:30N 38°55' E 001°26'0 0.0
2017-Aug-16 05:00N 38°55' E 001°26'0 0.0
2017-Aug-16 04:30N 38°55' E 001°26'0 0.0
2017-Aug-16 04:00N 38°55' E 001°26'0 0.0
2017-Aug-16 03:30N 38°55' E 001°26'0 0.0
2017-Aug-16 03:00N 38°55' E 001°26'0 0.0
2017-Aug-16 02:30N 38°55' E 001°26'0 0.0
2017-Aug-16 02:00N 38°55' E 001°26'0 0.0
2017-Aug-16 01:30N 38°55' E 001°26'0 0.0
2017-Aug-16 01:00N 38°55' E 001°26'0 0.0
2017-Aug-16 00:30N 38°55' E 001°26'0 0.0
2017-Aug-16 00:00N 38°55' E 001°26'0 0.0
2017-Aug-15 23:30N 38°55' E 001°26'0 0.0
2017-Aug-15 23:00N 38°55' E 001°26'0 0.0
2017-Aug-15 22:30N 38°55' E 001°26'0 0.0
2017-Aug-15 22:00N 38°55' E 001°26'0 0.0
2017-Aug-15 21:30N 38°55' E 001°26'0 0.0
2017-Aug-15 21:00N 38°55' E 001°26'0 0.0
2017-Aug-15 20:30N 38°55' E 001°26'0 0.0
2017-Aug-15 20:00N 38°55' E 001°26'0 0.0
2017-Aug-15 19:30N 38°55' E 001°26'0 0.0
2017-Aug-15 19:00N 38°55' E 001°26'0 0.0
2017-Aug-15 18:30N 38°55' E 001°26'0 0.0
2017-Aug-15 18:00N 38°55' E 001°26'0 0.0
2017-Aug-15 17:30N 38°55' E 001°26'0 0.0
2017-Aug-15 17:00N 38°55' E 001°26'0 0.0
2017-Aug-15 16:30N 38°55' E 001°26'0 0.0
2017-Aug-15 16:00N 38°55' E 001°26'0 0.0
2017-Aug-15 15:30N 38°55' E 001°26'0 0.0
2017-Aug-15 15:00N 38°55' E 001°26'0 0.0
2017-Aug-15 14:24N 38°55' E 001°26'0 0.0
2017-Aug-15 14:00N 38°55' E 001°26'0 0.0
2017-Aug-15 13:30N 38°55' E 001°26'0 0.0
2017-Aug-15 12:57N 38°55' E 001°26'0 0.0
2017-Aug-15 12:27N 38°55' E 001°26'0 0.0
2017-Aug-15 12:00N 38°55' E 001°26'0 0.0
2017-Aug-15 11:30N 38°55' E 001°26'0 0.0
2017-Aug-15 11:00N 38°55' E 001°26'0 0.0
2017-Aug-15 10:30N 38°55' E 001°26'0 0.0
2017-Aug-15 10:00N 38°55' E 001°26'0 0.0
2017-Aug-15 09:30N 38°55' E 001°26'0 0.0
2017-Aug-15 09:00N 38°55' E 001°26'0 0.0
2017-Aug-15 08:30N 38°55' E 001°26'0 0.0
2017-Aug-15 08:00N 38°55' E 001°26'0 0.0
2017-Aug-15 07:24N 38°55' E 001°26'0 0.0
2017-Aug-15 07:00N 38°55' E 001°26'0 0.0
2017-Aug-15 06:30N 38°55' E 001°26'0 0.0
2017-Aug-14 17:30N 38°55' E 001°26'3 3.2
2017-Aug-14 16:30N 38°55' E 001°30'918.2
2017-Aug-14 16:00N 39°02' E 001°38'0 0.0
2017-Aug-14 12:02N 39°02' E 001°38'0 0.0
2017-Aug-14 07:50N 39°02' E 001°38'0 0.0
2017-Aug-14 07:20N 39°02' E 001°38'0 0.1
2017-Aug-14 06:47N 39°02' E 001°38'0 0.1
2017-Aug-14 06:30N 39°02' E 001°38'612.0
2017-Aug-14 06:00N 38°57' E 001°33'613.1
2017-Aug-14 05:30N 38°54' E 001°26'1 1.1
2017-Aug-14 05:00N 38°54' E 001°26'0 0.0
2017-Aug-14 04:30N 38°54' E 001°26'0 0.0
2017-Aug-14 04:00N 38°54' E 001°26'0 0.0
2017-Aug-14 03:27N 38°54' E 001°26'0 0.0
2017-Aug-14 03:00N 38°54' E 001°26'0 0.0
2017-Aug-14 02:30N 38°54' E 001°26'0 0.0
2017-Aug-14 02:00N 38°54' E 001°26'0 0.0
2017-Aug-14 01:30N 38°54' E 001°26'0 0.1
2017-Aug-14 01:00N 38°54' E 001°26'0 0.0
2017-Aug-14 00:30N 38°54' E 001°26'0 0.1
2017-Aug-14 00:00N 38°54' E 001°26'0 0.0
2017-Aug-13 23:30N 38°54' E 001°26'0 0.0
2017-Aug-13 23:00N 38°54' E 001°26'1 1.1
2017-Aug-13 22:28N 38°54' E 001°25'1 1.2
2017-Aug-13 22:00N 38°54' E 001°26'0 0.0
2017-Aug-13 21:30N 38°54' E 001°26'0 0.0
2017-Aug-13 20:57N 38°54' E 001°26'0 0.0
2017-Aug-13 20:30N 38°54' E 001°26'0 0.0
2017-Aug-13 19:51N 38°54' E 001°26'1 0.1
2017-Aug-13 14:30N 38°54' E 001°25'0 0.4
2017-Aug-13 13:59N 38°54' E 001°25'6 0.5
2017-Aug-13 01:20N 38°52' E 001°18'0 0.0
2017-Aug-12 18:56N 38°52' E 001°18'10 0.9
2017-Aug-12 08:03N 39°02' E 001°17'513.1
2017-Aug-12 07:39N 39°05' E 001°23'413.1
2017-Aug-12 07:22N 39°06' E 001°27'3 7.6
2017-Aug-12 07:00N 39°07' E 001°31'611.8
2017-Aug-12 06:30N 39°04' E 001°37'3 0.1
2017-Aug-11 07:31N 39°01' E 001°37'0 6.8
2017-Aug-11 07:30N 39°01' E 001°37'5 9.6
2017-Aug-11 07:00N 38°57' E 001°33'712.5
2017-Aug-11 06:28N 38°54' E 001°26'0 0.0
2017-Aug-11 05:59N 38°54' E 001°26'0 0.0
2017-Aug-11 05:29N 38°54' E 001°26'0 0.0
2017-Aug-11 04:59N 38°54' E 001°26'0 0.0
2017-Aug-11 04:28N 38°54' E 001°26'0 0.0
2017-Aug-11 03:58N 38°54' E 001°26'0 0.0
2017-Aug-11 03:29N 38°54' E 001°26'0 0.0
2017-Aug-11 02:59N 38°54' E 001°26'0 0.0
2017-Aug-11 02:29N 38°54' E 001°26'0 0.0
2017-Aug-11 01:59N 38°54' E 001°26'0 0.0
2017-Aug-11 01:29N 38°54' E 001°26'0 0.0
2017-Aug-11 00:59N 38°54' E 001°26'0 0.0
2017-Aug-11 00:28N 38°54' E 001°26'1 2.0
2017-Aug-10 23:59N 38°55' E 001°26'1 1.9
2017-Aug-10 23:29N 38°54' E 001°26'0 0.0
2017-Aug-10 22:59N 38°54' E 001°26'0 0.0
2017-Aug-10 22:28N 38°54' E 001°26'0 0.0
2017-Aug-10 21:59N 38°54' E 001°26'0 0.0
2017-Aug-10 21:25N 38°54' E 001°26'0 0.0
2017-Aug-10 20:59N 38°54' E 001°26'0 0.0
2017-Aug-10 19:59N 38°54' E 001°26'1 1.3
2017-Aug-10 19:29N 38°54' E 001°27'1 1.3
2017-Aug-10 18:59N 38°54' E 001°26'0 0.0
2017-Aug-10 18:28N 38°54' E 001°26'0 0.0
2017-Aug-10 18:00N 38°54' E 001°26'8 1.3
2017-Aug-10 12:07N 38°46' E 001°24'514.1
2017-Aug-10 11:45N 38°50' E 001°20'3 0.2
2017-Aug-09 16:17N 38°52' E 001°17'310.6
2017-Aug-09 16:00N 38°50' E 001°20'4 0.7
2017-Aug-09 09:55N 38°48' E 001°24'613.7
2017-Aug-09 09:30N 38°50' E 001°31'814.2
2017-Aug-09 08:59N 38°52' E 001°40'714.2
2017-Aug-09 08:30N 38°54' E 001°48'714.0
2017-Aug-09 08:00N 38°57' E 001°57'713.8
2017-Aug-09 07:30N 38°59' E 002°05'713.9
2017-Aug-09 07:01N 39°01' E 002°14'712.9
2017-Aug-09 06:30N 39°04' E 002°22'613.0
2017-Aug-09 06:00N 39°06' E 002°30'713.1
2017-Aug-09 05:30N 39°08' E 002°38'713.3
2017-Aug-09 05:00N 39°10' E 002°46'713.7
2017-Aug-09 04:30N 39°12' E 002°54'713.6
2017-Aug-09 04:00N 39°14' E 003°03'713.5
2017-Aug-09 03:30N 39°16' E 003°11'713.7
2017-Aug-09 03:00N 39°20' E 003°18'143 6.2
2017-Aug-08 03:53N 41°12' E 005°15'3112.3
2017-Aug-08 01:22N 41°39' E 005°35'512.1
2017-Aug-08 00:57N 41°44' E 005°38'612.3
2017-Aug-08 00:28N 41°49' E 005°41'612.7
2017-Aug-07 23:58N 41°55' E 005°45'3212.9
2017-Aug-07 21:27N 42°23' E 006°07'613.4
2017-Aug-07 21:00N 42°28' E 006°10'713.6
2017-Aug-07 20:30N 42°34' E 006°14'1513.9
2017-Aug-07 19:27N 42°47' E 006°23'  

Dump ship's entire track history